createdAt,value
2022-10-08T00:01:06.513Z,10.87
2022-10-08T00:03:36.966Z,10.81
2022-10-08T00:06:08.026Z,10.76
2022-10-08T00:08:38.037Z,10.73
2022-10-08T00:11:08.105Z,10.69
2022-10-08T00:13:42.811Z,10.61
2022-10-08T00:16:12.745Z,10.68
2022-10-08T00:18:41.316Z,10.62
2022-10-08T00:21:14.291Z,10.56
2022-10-08T00:23:42.021Z,10.68
2022-10-08T00:26:09.663Z,10.66
2022-10-08T00:28:38.995Z,10.50
2022-10-08T00:31:11.366Z,10.41
2022-10-08T00:33:38.504Z,10.34
2022-10-08T00:36:07.867Z,10.22
2022-10-08T00:38:35.359Z,10.44
2022-10-08T00:41:02.905Z,10.23
2022-10-08T00:43:57.723Z,10.31
2022-10-08T00:46:56.440Z,10.36
2022-10-08T00:49:23.178Z,10.35
2022-10-08T00:51:55.888Z,10.39
2022-10-08T00:54:23.348Z,10.41
2022-10-08T00:56:53.599Z,10.31
2022-10-08T00:59:20.509Z,10.12
2022-10-08T01:01:47.570Z,10.17
2022-10-08T01:04:15.932Z,10.30
2022-10-08T01:06:53.593Z,10.14
2022-10-08T01:09:31.051Z,10.17
2022-10-08T01:12:10.531Z,10.22
2022-10-08T01:15:18.508Z,10.36
2022-10-08T01:18:01.916Z,10.42
2022-10-08T01:20:38.364Z,10.45
2022-10-08T01:23:16.777Z,10.46
2022-10-08T01:26:01.415Z,10.55
2022-10-08T01:28:53.541Z,10.32
2022-10-08T01:31:26.532Z,10.37
2022-10-08T01:33:59.112Z,10.49
2022-10-08T01:36:31.407Z,10.26
2022-10-08T01:39:01.677Z,10.33
2022-10-08T01:41:31.422Z,10.33
2022-10-08T01:44:04.915Z,10.29
2022-10-08T01:46:33.956Z,10.32
2022-10-08T01:49:07.282Z,10.21
2022-10-08T01:51:42.188Z,10.16
2022-10-08T01:54:12.154Z,10.53
2022-10-08T01:56:41.031Z,10.54
2022-10-08T01:59:16.567Z,10.40
2022-10-08T02:01:59.048Z,10.52
2022-10-08T02:04:35.303Z,10.49
2022-10-08T02:07:10.846Z,10.49
2022-10-08T02:09:46.701Z,10.50
2022-10-08T02:12:14.522Z,10.62
2022-10-08T02:14:47.664Z,10.55
2022-10-08T02:17:29.864Z,10.72
2022-10-08T02:20:16.969Z,10.67
2022-10-08T02:23:06.615Z,10.66
2022-10-08T02:25:46.514Z,10.73
2022-10-08T02:28:38.808Z,10.77
2022-10-08T02:31:10.573Z,10.86
2022-10-08T02:33:41.113Z,10.88
2022-10-08T02:36:11.224Z,10.92
2022-10-08T02:38:59.359Z,11.00
2022-10-08T02:41:30.739Z,11.06
2022-10-08T02:44:01.309Z,11.14
2022-10-08T02:46:33.310Z,11.03
2022-10-08T02:49:06.300Z,10.92
2022-10-08T02:51:37.639Z,11.21
2022-10-08T02:54:06.938Z,11.09
2022-10-08T02:56:40.576Z,11.10
2022-10-08T02:59:07.444Z,11.12
2022-10-08T03:01:55.806Z,11.12
2022-10-08T03:04:22.374Z,11.12
2022-10-08T03:06:50.972Z,11.17
2022-10-08T03:09:19.160Z,11.07
2022-10-08T03:11:46.658Z,11.00
2022-10-08T03:14:15.748Z,11.10
2022-10-08T03:16:44.974Z,11.13
2022-10-08T03:19:14.543Z,11.19
2022-10-08T03:21:43.177Z,10.99
2022-10-08T03:24:12.268Z,11.18
2022-10-08T03:26:39.805Z,10.97
2022-10-08T03:29:06.945Z,11.10
2022-10-08T03:31:33.862Z,11.06
2022-10-08T03:34:00.684Z,10.89
2022-10-08T03:36:27.315Z,11.09
2022-10-08T03:38:54.024Z,11.09
2022-10-08T03:41:20.757Z,10.96
2022-10-08T03:43:47.576Z,11.12
2022-10-08T03:46:15.353Z,11.15
2022-10-08T03:48:42.788Z,10.96
2022-10-08T03:51:13.391Z,11.03
2022-10-08T03:53:41.563Z,11.01
2022-10-08T03:56:13.734Z,10.85
2022-10-08T03:58:40.590Z,10.93
2022-10-08T04:01:11.396Z,10.94
2022-10-08T04:03:38.192Z,10.98
2022-10-08T04:06:05.192Z,11.07
2022-10-08T04:08:33.639Z,10.98
2022-10-08T04:11:05.386Z,11.13
2022-10-08T04:13:32.846Z,11.02
2022-10-08T04:16:05.434Z,11.04
2022-10-08T04:18:32.700Z,11.07
2022-10-08T04:21:00.788Z,10.99
2022-10-08T04:23:28.485Z,11.07
2022-10-08T04:25:55.266Z,10.96
2022-10-08T04:28:22.969Z,10.95
2022-10-08T04:31:02.730Z,10.91
2022-10-08T04:33:30.951Z,10.94
2022-10-08T04:36:00.061Z,10.94
2022-10-08T04:38:28.555Z,10.91
2022-10-08T04:41:09.804Z,11.03
2022-10-08T04:43:38.062Z,10.86
2022-10-08T04:46:06.128Z,10.89
2022-10-08T04:48:32.696Z,10.92
2022-10-08T04:51:02.010Z,10.88
2022-10-08T04:53:29.423Z,10.89
2022-10-08T04:55:57.771Z,10.95
2022-10-08T04:58:25.793Z,10.80
2022-10-08T05:00:52.378Z,10.83
2022-10-08T05:03:19.072Z,10.79
2022-10-08T05:05:46.390Z,10.83
2022-10-08T05:08:13.113Z,10.76
2022-10-08T05:10:39.848Z,10.76
2022-10-08T05:13:06.413Z,10.54
2022-10-08T05:15:34.772Z,10.60
2022-10-08T05:18:01.293Z,10.84
2022-10-08T05:20:28.036Z,10.75
2022-10-08T05:22:54.618Z,10.66
2022-10-08T05:25:21.243Z,10.66
2022-10-08T05:27:47.799Z,10.48
2022-10-08T05:30:15.695Z,10.52
2022-10-08T05:32:45.390Z,10.50
2022-10-08T05:35:12.289Z,10.40
2022-10-08T05:37:38.947Z,10.50
2022-10-08T05:40:06.113Z,10.35
2022-10-08T05:42:32.635Z,10.36
2022-10-08T05:44:59.276Z,10.27
2022-10-08T05:47:26.316Z,10.11
2022-10-08T05:49:52.982Z,10.44
2022-10-08T05:52:19.686Z,10.38
2022-10-08T05:54:46.371Z,10.34
2022-10-08T05:57:12.992Z,10.23
2022-10-08T05:59:39.483Z,10.19
2022-10-08T06:02:06.674Z,10.29
2022-10-08T06:04:33.250Z,10.33
2022-10-08T06:06:59.936Z,10.29
2022-10-08T06:09:26.683Z,10.32
2022-10-08T06:11:53.291Z,10.44
2022-10-08T06:14:24.384Z,10.43
2022-10-08T06:16:51.007Z,10.49
2022-10-08T06:19:17.570Z,10.61
2022-10-08T06:21:44.187Z,10.67
2022-10-08T06:24:12.216Z,10.59
2022-10-08T06:26:40.783Z,10.65
2022-10-08T06:29:10.693Z,10.48
2022-10-08T06:31:37.398Z,10.50
2022-10-08T06:34:04.907Z,10.67
2022-10-08T06:36:32.591Z,10.65
2022-10-08T06:39:02.441Z,10.50
2022-10-08T06:41:35.967Z,10.63
2022-10-08T06:44:10.495Z,10.64
2022-10-08T06:46:37.241Z,10.70
2022-10-08T06:49:06.354Z,10.73
2022-10-08T06:51:33.923Z,10.74
2022-10-08T06:54:06.999Z,10.98
2022-10-08T06:56:36.353Z,11.08
2022-10-08T06:59:04.086Z,10.97
2022-10-08T07:01:33.838Z,11.14
2022-10-08T07:04:01.586Z,11.17
2022-10-08T07:06:28.666Z,11.31
2022-10-08T07:08:57.434Z,11.28
2022-10-08T07:11:25.157Z,11.40
2022-10-08T07:13:52.065Z,11.33
2022-10-08T07:16:21.617Z,11.45
2022-10-08T07:18:50.946Z,11.67
2022-10-08T07:21:19.645Z,11.59
2022-10-08T07:23:46.237Z,11.89
2022-10-08T07:26:24.497Z,11.99
2022-10-08T07:28:52.425Z,11.97
2022-10-08T07:31:22.082Z,12.25
2022-10-08T07:33:49.248Z,12.28
2022-10-08T07:36:19.158Z,12.49
2022-10-08T07:38:46.454Z,12.45
2022-10-08T07:41:13.626Z,12.84
2022-10-08T07:43:43.428Z,12.97
2022-10-08T07:46:12.150Z,12.93
2022-10-08T07:48:39.400Z,12.83
2022-10-08T07:51:26.493Z,12.73
2022-10-08T07:53:53.113Z,13.05
2022-10-08T07:56:21.044Z,13.30
2022-10-08T07:58:48.044Z,13.15
2022-10-08T08:01:18.088Z,13.31
2022-10-08T08:03:44.704Z,13.44
2022-10-08T08:06:15.219Z,13.51
2022-10-08T08:08:46.106Z,13.54
2022-10-08T08:11:17.678Z,13.74
2022-10-08T08:13:44.612Z,13.64
2022-10-08T08:16:16.146Z,13.76
2022-10-08T08:18:46.668Z,13.76
2022-10-08T08:21:16.313Z,13.82
2022-10-08T08:23:47.737Z,13.79
2022-10-08T08:26:20.817Z,14.05
2022-10-08T08:28:55.429Z,14.07
2022-10-08T08:31:25.115Z,14.11
2022-10-08T08:33:58.105Z,14.20
2022-10-08T08:36:28.186Z,14.26
2022-10-08T08:38:58.173Z,13.69
2022-10-08T08:41:50.608Z,13.41
2022-10-08T08:44:18.435Z,13.49
2022-10-08T08:46:50.721Z,13.51
2022-10-08T08:49:29.220Z,13.28
2022-10-08T08:51:59.177Z,13.34
2022-10-08T08:54:25.870Z,13.45
2022-10-08T08:56:53.906Z,13.87
2022-10-08T08:59:39.738Z,14.21
2022-10-08T09:02:18.835Z,14.62
2022-10-08T09:04:53.139Z,14.50
2022-10-08T09:07:25.459Z,14.48
2022-10-08T09:09:54.220Z,14.46
2022-10-08T09:12:50.223Z,14.33
2022-10-08T09:15:39.976Z,14.26
2022-10-08T09:18:06.907Z,14.61
2022-10-08T09:20:40.033Z,14.91
2022-10-08T09:23:16.789Z,14.72
2022-10-08T09:25:47.328Z,14.83
2022-10-08T09:28:40.876Z,14.15
2022-10-08T09:31:28.390Z,13.83
2022-10-08T09:34:10.175Z,13.69
2022-10-08T09:36:54.876Z,13.88
2022-10-08T09:39:31.118Z,14.50
2022-10-08T09:42:07.304Z,14.56
2022-10-08T09:44:44.103Z,14.78
2022-10-08T09:47:16.561Z,14.83
2022-10-08T09:49:44.166Z,14.64
2022-10-08T09:52:17.367Z,14.84
2022-10-08T09:54:51.058Z,14.72
2022-10-08T09:57:20.428Z,14.95
2022-10-08T10:00:00.202Z,14.86
2022-10-08T10:02:32.947Z,14.11
2022-10-08T10:05:02.261Z,14.50
2022-10-08T10:07:45.965Z,14.92
2022-10-08T10:10:48.634Z,15.10
2022-10-08T10:13:30.268Z,14.99
2022-10-08T10:16:02.601Z,15.08
2022-10-08T10:18:34.169Z,14.93
2022-10-08T10:21:05.871Z,14.70
2022-10-08T10:23:41.602Z,14.89
2022-10-08T10:26:24.220Z,15.50
2022-10-08T10:28:57.713Z,15.46
2022-10-08T10:31:34.518Z,15.36
2022-10-08T10:34:19.253Z,15.03
2022-10-08T10:36:53.352Z,15.82
2022-10-08T10:39:38.261Z,16.01
2022-10-08T10:42:30.928Z,16.03
2022-10-08T10:45:22.847Z,15.82
2022-10-08T10:47:53.909Z,15.50
2022-10-08T10:50:51.021Z,14.72
2022-10-08T10:53:46.473Z,13.11
2022-10-08T10:56:17.278Z,12.92
2022-10-08T10:58:49.561Z,12.04
2022-10-08T11:01:50.895Z,11.16
2022-10-08T11:05:01.375Z,10.93
2022-10-08T11:07:49.423Z,10.62
2022-10-08T11:10:43.463Z,10.34
2022-10-08T11:13:18.929Z,10.27
2022-10-08T11:15:55.149Z,10.55
2022-10-08T11:18:43.325Z,10.51
2022-10-08T11:21:42.931Z,10.94
2022-10-08T11:24:52.745Z,11.49
2022-10-08T11:27:54.245Z,11.67
2022-10-08T11:30:41.569Z,12.24
2022-10-08T11:33:13.918Z,12.08
2022-10-08T11:35:58.911Z,12.33
2022-10-08T11:38:38.467Z,12.20
2022-10-08T11:41:21.025Z,12.62
2022-10-08T11:43:58.173Z,12.55
2022-10-08T11:46:32.308Z,12.42
2022-10-08T11:49:16.388Z,12.86
2022-10-08T11:51:45.339Z,13.00
2022-10-08T11:54:26.725Z,12.79
2022-10-08T11:57:13.599Z,12.76
2022-10-08T11:59:58.766Z,13.10
2022-10-08T12:02:30.573Z,13.04
2022-10-08T12:05:17.753Z,12.91
2022-10-08T12:07:51.900Z,12.91
2022-10-08T12:10:18.608Z,12.81
2022-10-08T12:12:51.190Z,12.82
2022-10-08T12:15:24.569Z,12.93
2022-10-08T12:17:53.627Z,13.18
2022-10-08T12:20:33.728Z,13.56
2022-10-08T12:23:05.337Z,13.15
2022-10-08T12:26:10.098Z,13.03
2022-10-08T12:28:39.335Z,13.28
2022-10-08T12:31:39.528Z,13.58
2022-10-08T12:34:20.020Z,13.40
2022-10-08T12:37:04.470Z,13.27
2022-10-08T12:39:38.256Z,12.92
2022-10-08T12:42:25.394Z,12.97
2022-10-08T12:45:13.373Z,12.91
2022-10-08T12:47:51.794Z,13.06
2022-10-08T12:50:26.309Z,13.12
2022-10-08T12:52:53.899Z,13.22
2022-10-08T12:55:23.278Z,13.13
2022-10-08T12:57:52.517Z,13.12
2022-10-08T13:00:31.756Z,13.05
2022-10-08T13:03:06.433Z,12.97
2022-10-08T13:05:38.621Z,12.98
2022-10-08T13:08:23.857Z,12.79
2022-10-08T13:10:50.598Z,12.52
2022-10-08T13:13:41.190Z,12.12
2022-10-08T13:16:25.351Z,11.97
2022-10-08T13:18:57.370Z,12.37
2022-10-08T13:21:23.951Z,11.96
2022-10-08T13:23:51.154Z,12.26
2022-10-08T13:26:39.198Z,11.96
2022-10-08T13:29:23.989Z,11.98
2022-10-08T13:31:56.432Z,11.85
2022-10-08T13:34:26.484Z,12.05
2022-10-08T13:36:56.698Z,11.83
2022-10-08T13:39:51.153Z,11.70
2022-10-08T13:42:20.755Z,11.71
2022-10-08T13:44:47.692Z,11.64
2022-10-08T13:47:19.543Z,11.54
2022-10-08T13:49:46.926Z,11.59
2022-10-08T13:52:22.308Z,11.60
2022-10-08T13:54:51.633Z,11.45
2022-10-08T13:57:18.253Z,11.28
2022-10-08T13:59:44.918Z,11.62
2022-10-08T14:02:13.683Z,11.18
2022-10-08T14:04:40.494Z,11.25
2022-10-08T14:07:32.909Z,11.57
2022-10-08T14:10:01.559Z,11.63
2022-10-08T14:12:32.629Z,11.90
2022-10-08T14:15:00.368Z,12.01
2022-10-08T14:17:27.468Z,12.04
2022-10-08T14:19:56.767Z,12.01
2022-10-08T14:22:24.405Z,11.98
2022-10-08T14:24:51.814Z,12.06
2022-10-08T14:27:18.376Z,12.04
2022-10-08T14:30:08.595Z,12.25
2022-10-08T14:32:35.421Z,12.27
2022-10-08T14:35:04.434Z,12.27
2022-10-08T14:37:32.824Z,12.52
2022-10-08T14:39:59.530Z,12.64
2022-10-08T14:42:26.115Z,12.49
2022-10-08T14:44:53.572Z,12.71
2022-10-08T14:47:20.718Z,12.79
2022-10-08T14:49:48.905Z,12.62
2022-10-08T14:52:16.820Z,12.73
2022-10-08T14:54:45.299Z,12.82
2022-10-08T14:57:12.017Z,12.87
2022-10-08T14:59:42.001Z,12.93
2022-10-08T15:02:11.828Z,13.11
2022-10-08T15:04:39.391Z,13.20
2022-10-08T15:07:08.065Z,13.17
2022-10-08T15:09:37.224Z,13.24
2022-10-08T15:12:03.987Z,13.16
2022-10-08T15:14:34.335Z,13.22
2022-10-08T15:17:03.744Z,12.89
2022-10-08T15:19:30.439Z,12.14
2022-10-08T15:21:57.132Z,11.42
2022-10-08T15:24:23.848Z,11.19
2022-10-08T15:26:50.421Z,11.21
2022-10-08T15:29:17.122Z,10.95
2022-10-08T15:31:43.761Z,11.18
2022-10-08T15:34:17.906Z,10.68
2022-10-08T15:36:44.792Z,10.69
2022-10-08T15:39:16.814Z,11.12
2022-10-08T15:41:46.974Z,11.10
2022-10-08T15:44:24.209Z,11.19
2022-10-08T15:47:01.664Z,10.82
2022-10-08T15:49:41.840Z,10.85
2022-10-08T15:52:12.280Z,10.67
2022-10-08T15:54:39.801Z,10.69
2022-10-08T15:57:07.601Z,10.62
2022-10-08T15:59:34.554Z,10.99
2022-10-08T16:02:01.282Z,10.89
2022-10-08T16:04:28.106Z,10.80
2022-10-08T16:06:54.721Z,10.68
2022-10-08T16:09:23.260Z,10.74
2022-10-08T16:11:51.458Z,10.89
2022-10-08T16:14:20.466Z,10.62
2022-10-08T16:16:47.970Z,10.55
2022-10-08T16:19:20.570Z,10.50
2022-10-08T16:21:49.247Z,10.73
2022-10-08T16:24:15.912Z,10.62
2022-10-08T16:26:43.941Z,10.44
2022-10-08T16:29:13.605Z,10.59
2022-10-08T16:31:41.809Z,10.61
2022-10-08T16:34:12.748Z,10.29
2022-10-08T16:36:39.832Z,10.28
2022-10-08T16:39:07.592Z,10.19
2022-10-08T16:41:35.874Z,10.18
2022-10-08T16:44:12.313Z,10.20
2022-10-08T16:46:41.949Z,10.42
2022-10-08T16:49:12.467Z,10.28
2022-10-08T16:51:39.105Z,10.49
2022-10-08T16:54:11.737Z,10.47
2022-10-08T16:56:40.619Z,10.57
2022-10-08T16:59:12.830Z,10.67
2022-10-08T17:01:43.225Z,10.57
2022-10-08T17:04:15.845Z,10.55
2022-10-08T17:06:43.383Z,10.48
2022-10-08T17:09:11.564Z,10.43
2022-10-08T17:11:38.913Z,10.28
2022-10-08T17:14:07.862Z,10.19
2022-10-08T17:16:35.829Z,10.16
2022-10-08T17:19:03.545Z,10.08
2022-10-08T17:21:31.097Z,10.03
2022-10-08T17:23:58.751Z,10.03
2022-10-08T17:26:27.763Z,10.00
2022-10-08T17:28:55.191Z,9.98
2022-10-08T17:31:29.079Z,9.95
2022-10-08T17:33:55.767Z,9.73
2022-10-08T17:36:26.098Z,9.80
2022-10-08T17:38:56.269Z,9.06
2022-10-08T17:41:27.149Z,9.07
2022-10-08T17:43:55.957Z,9.64
2022-10-08T17:46:26.214Z,9.69
2022-10-08T17:48:53.580Z,9.69
2022-10-08T17:51:22.690Z,9.43
2022-10-08T17:53:57.932Z,9.55
2022-10-08T17:56:28.096Z,9.64
2022-10-08T17:58:54.776Z,9.57
2022-10-08T18:01:29.859Z,9.51
2022-10-08T18:04:11.375Z,9.53
2022-10-08T18:06:43.258Z,9.60
2022-10-08T18:09:22.231Z,9.55
2022-10-08T18:11:53.381Z,9.48
2022-10-08T18:14:20.798Z,9.43
2022-10-08T18:16:48.682Z,9.46
2022-10-08T18:19:16.434Z,9.47
2022-10-08T18:21:42.974Z,9.44
2022-10-08T18:24:09.618Z,9.47
2022-10-08T18:26:37.142Z,9.32
2022-10-08T18:29:09.979Z,9.36
2022-10-08T18:31:38.248Z,9.36
2022-10-08T18:34:07.977Z,9.40
2022-10-08T18:36:37.132Z,9.39
2022-10-08T18:39:10.332Z,9.40
2022-10-08T18:41:41.238Z,9.49
2022-10-08T18:44:10.853Z,9.40
2022-10-08T18:46:38.608Z,9.31
2022-10-08T18:49:06.348Z,9.20
2022-10-08T18:51:34.395Z,9.37
2022-10-08T18:54:02.368Z,9.14
2022-10-08T18:56:35.861Z,9.25
2022-10-08T18:59:05.696Z,9.29
2022-10-08T19:01:35.504Z,8.97
2022-10-08T19:04:04.211Z,8.54
2022-10-08T19:06:34.307Z,8.59
2022-10-08T19:09:03.313Z,8.67
2022-10-08T19:11:33.824Z,8.84
2022-10-08T19:14:01.857Z,8.93
2022-10-08T19:16:29.260Z,8.78
2022-10-08T19:19:04.353Z,8.49
2022-10-08T19:21:35.443Z,8.52
2022-10-08T19:24:02.311Z,8.60
2022-10-08T19:26:30.796Z,8.82
2022-10-08T19:28:58.285Z,9.00
2022-10-08T19:31:28.170Z,9.13
2022-10-08T19:34:00.537Z,9.27
2022-10-08T19:36:30.291Z,9.11
2022-10-08T19:38:59.939Z,9.06
2022-10-08T19:41:28.721Z,9.04
2022-10-08T19:43:57.833Z,8.98
2022-10-08T19:46:26.612Z,9.08
2022-10-08T19:48:55.684Z,8.94
2022-10-08T19:51:22.947Z,8.87
2022-10-08T19:53:50.981Z,8.85
2022-10-08T19:56:18.375Z,8.60
2022-10-08T19:58:48.673Z,8.75
2022-10-08T20:01:21.480Z,8.75
2022-10-08T20:03:49.202Z,8.76
2022-10-08T20:06:24.054Z,8.72
2022-10-08T20:08:54.838Z,8.71
2022-10-08T20:11:22.105Z,8.71
2022-10-08T20:13:50.268Z,8.61
2022-10-08T20:16:28.967Z,8.61
2022-10-08T20:19:01.325Z,8.63
2022-10-08T20:21:30.713Z,8.62
2022-10-08T20:23:57.657Z,8.52
2022-10-08T20:26:27.246Z,8.58
2022-10-08T20:28:57.625Z,8.66
2022-10-08T20:31:27.562Z,8.58
2022-10-08T20:34:00.104Z,8.45
2022-10-08T20:36:27.531Z,8.50
2022-10-08T20:38:54.734Z,8.59
2022-10-08T20:41:25.471Z,8.41
2022-10-08T20:44:00.462Z,8.47
2022-10-08T20:46:27.203Z,8.36
2022-10-08T20:48:53.914Z,8.36
2022-10-08T20:51:23.405Z,8.45
2022-10-08T20:53:52.598Z,8.46
2022-10-08T20:56:19.730Z,8.53
2022-10-08T20:58:46.907Z,8.43
2022-10-08T21:01:23.611Z,8.40
2022-10-08T21:03:50.913Z,8.43
2022-10-08T21:06:23.401Z,8.46
2022-10-08T21:08:52.569Z,8.39
2022-10-08T21:11:22.193Z,8.32
2022-10-08T21:13:49.341Z,8.37
2022-10-08T21:16:18.369Z,8.35
2022-10-08T21:18:49.487Z,8.39
2022-10-08T21:21:16.867Z,8.27
2022-10-08T21:23:43.521Z,8.21
2022-10-08T21:26:16.505Z,8.12
2022-10-08T21:28:45.192Z,8.16
2022-10-08T21:31:13.206Z,8.00
2022-10-08T21:33:42.183Z,7.95
2022-10-08T21:36:14.614Z,8.00
2022-10-08T21:38:41.703Z,7.88
2022-10-08T21:41:14.016Z,7.90
2022-10-08T21:43:45.593Z,8.13
2022-10-08T21:46:15.542Z,8.08
2022-10-08T21:48:42.598Z,7.87
2022-10-08T21:51:12.079Z,7.94
2022-10-08T21:53:40.807Z,8.07
2022-10-08T21:56:10.895Z,7.76
2022-10-08T21:58:40.486Z,7.92
2022-10-08T22:01:08.713Z,7.69
2022-10-08T22:03:35.545Z,7.74
2022-10-08T22:06:04.749Z,7.70
2022-10-08T22:08:31.672Z,7.79
2022-10-08T22:10:58.316Z,7.87
2022-10-08T22:13:25.070Z,7.78
2022-10-08T22:15:57.362Z,7.83
2022-10-08T22:18:26.143Z,7.76
2022-10-08T22:20:53.217Z,7.79
2022-10-08T22:23:20.510Z,7.82
2022-10-08T22:26:05.346Z,7.65
2022-10-08T22:28:32.585Z,7.76
2022-10-08T22:31:00.934Z,7.70
2022-10-08T22:33:28.680Z,7.75
2022-10-08T22:36:09.988Z,7.73
2022-10-08T22:38:38.598Z,7.59
2022-10-08T22:41:07.673Z,7.61
2022-10-08T22:43:36.253Z,7.61
2022-10-08T22:46:07.674Z,7.65
2022-10-08T22:48:35.372Z,7.57
2022-10-08T22:51:07.786Z,7.62
2022-10-08T22:53:35.257Z,7.53
2022-10-08T22:56:07.031Z,7.67
2022-10-08T22:58:35.071Z,7.55
2022-10-08T23:01:04.790Z,7.49
2022-10-08T23:03:31.984Z,7.45
2022-10-08T23:06:08.959Z,7.42
2022-10-08T23:08:36.078Z,7.61
2022-10-08T23:11:03.622Z,7.52
2022-10-08T23:13:31.403Z,7.63
2022-10-08T23:16:03.452Z,7.35
2022-10-08T23:18:35.833Z,7.34
2022-10-08T23:21:08.149Z,7.36
2022-10-08T23:23:35.627Z,7.46
2022-10-08T23:26:05.350Z,7.34
2022-10-08T23:28:33.827Z,7.36
2022-10-08T23:31:11.917Z,7.47
2022-10-08T23:33:40.653Z,7.49
2022-10-08T23:36:08.756Z,7.46
2022-10-08T23:38:36.695Z,7.50
2022-10-08T23:41:06.557Z,7.62
2022-10-08T23:43:38.613Z,7.53
2022-10-08T23:46:06.711Z,7.69
2022-10-08T23:48:33.888Z,7.44
2022-10-08T23:51:00.977Z,7.46
2022-10-08T23:53:27.920Z,7.51
2022-10-08T23:55:54.783Z,7.36
2022-10-08T23:58:21.492Z,7.30
